Aérodrome :







RETROUVEZ-NOUS SUR...

 
LOGIN :

S'inscrire | Disclaimer

   EN    FR    IT 

 









Légende :    VFR   VFR Marginal   IFR   IFR Intensif   IFR Très Intensif
Visi : 
Plafond : 
>= 8 km
>= 3000ft
5 à 8 km
1000 à 3000 ft
1500m à 5 km
500 à 1000 ft
800 à 1500m
200 à 500 ft
< 800m
< 200 ft
Symboles :   Orages  Brouillard  Fortes neiges  Fortes précipitations  Vent > 20 kt






- Altitude de l'aérodrome : 1009 ft
- Code IATA : ORH


KORH - Worcester Regional

DERNIER METAR :
  • 151754Z VRB04KT 10SM SCT036 OVC046 21/15 A3025 RMK AO2 SLP241 T02110150 10222 20178 53006

METARs EXPIRÉS :
  • 151654Z 06006KT 10SM FEW020 SCT028 OVC034 21/15 A3023 RMK AO2 SLP236 T02110150
  • 151554Z 04006KT 10SM FEW015 OVC028 21/15 A3023 RMK AO2 SLP235 T02110150

TAF KORH
Valide du 15 à 18h jusqu'au 16 à 18h UTC


151740Z 1518/1618 07004KT P6SM BKN045
FM152200 10006KT P6SM BKN080
FM160400 14005KT P6SM BKN040
FIR KZBW / Amérique du Nord



MET'MAP, la Météo Aéronautique d'un coup d'oeil ! - Copyright ORBIFLY Décembre 2007 - Disclaimer

ORBIFLY MET'MAP TEAM :

Programmation & Développement : Alexandra Zaïnal
Sur une idée originale de : Baudouin d'Aumeries
Assistance à la programmation : Marc-Olivier Méhu
Soutien technique & logistique : Manuel Goepfert

Contact : metmap@orbifly.com




SOURCES & CREDITS :

   NOAA